Time;durP1;ratioP1;P1;durP2;ratioP2;P2;SDS_P1;SDS_P2;PMS_P1;PMS_P2;Temp;Humidity;BMP_temperature;BMP_pressure;BME280_temperature;BME280_humidity;BME280_pressure;Samples;Min_cycle;Max_cycle;Signal;HPM_P1;HPM_P2
2023/10/31 00:01:59;;;;;;;12.50;2.60;;;;;;;14.19;100.00;98502.17;110823;1265;22240;-81
2023/10/31 00:04:27;;;;;;;9.90;2.60;;;;;;;14.20;100.00;98490.44;110783;1268;22195;-80
2023/10/31 00:06:56;;;;;;;12.70;3.30;;;;;;;14.22;100.00;98484.69;110795;1272;22273;-80
2023/10/31 00:09:24;;;;;;;10.30;2.10;;;;;;;14.24;100.00;98481.77;110745;1265;22368;-80
2023/10/31 00:11:52;;;;;;;12.00;2.20;;;;;;;14.24;100.00;98477.54;110771;1265;22168;-80
2023/10/31 00:14:21;;;;;;;13.10;2.30;;;;;;;14.26;100.00;98467.18;110746;1272;22873;-80
2023/10/31 00:16:49;;;;;;;11.80;2.50;;;;;;;14.28;100.00;98473.69;110594;1272;212407;-80
2023/10/31 00:19:17;;;;;;;17.50;3.00;;;;;;;14.30;100.00;98477.02;110789;1272;22125;-80
2023/10/31 00:21:45;;;;;;;14.00;2.80;;;;;;;14.33;100.00;98471.13;110559;1272;22195;-80
2023/10/31 00:24:13;;;;;;;12.30;2.30;;;;;;;14.34;100.00;98465.52;110838;1267;22517;-80
2023/10/31 00:26:42;;;;;;;10.50;2.30;;;;;;;14.36;100.00;98468.48;110806;1269;22367;-80
2023/10/31 00:29:10;;;;;;;12.30;2.50;;;;;;;14.37;100.00;98469.87;110664;1269;23411;-80
2023/10/31 00:31:40;;;;;;;10.90;2.10;;;;;;;14.38;100.00;98469.84;110801;1272;22183;-80
2023/10/31 00:34:09;;;;;;;9.20;2.10;;;;;;;14.39;100.00;98469.76;110704;1272;23068;-80
2023/10/31 00:36:37;;;;;;;13.90;2.00;;;;;;;14.40;100.00;98460.94;110788;1272;22522;-80
2023/10/31 00:39:06;;;;;;;10.50;1.60;;;;;;;14.41;100.00;98457.96;110773;1272;23416;-80
2023/10/31 00:41:34;;;;;;;9.00;2.50;;;;;;;14.43;100.00;98453.74;110700;1266;22278;-80
2023/10/31 00:44:05;;;;;;;9.30;2.20;;;;;;;14.43;100.00;98440.65;110742;1272;22189;-80
2023/10/31 00:46:33;;;;;;;13.00;1.80;;;;;;;14.45;100.00;98436.42;110790;1268;22189;-80
2023/10/31 00:49:01;;;;;;;8.30;1.50;;;;;;;14.46;100.00;98426.96;110617;1269;22423;-80
2023/10/31 00:51:29;;;;;;;14.70;1.80;;;;;;;14.47;100.00;98421.77;110718;1266;22231;-80
2023/10/31 00:53:57;;;;;;;9.10;1.40;;;;;;;14.49;100.00;98415.89;110795;1267;23009;-80
2023/10/31 00:56:26;;;;;;;13.10;1.40;;;;;;;14.50;100.00;98412.09;110761;1260;22228;-80
2023/10/31 00:58:54;;;;;;;13.20;2.20;;;;;;;14.51;100.00;98403.39;110748;1272;22415;-80
2023/10/31 01:01:22;;;;;;;7.90;1.20;;;;;;;14.53;100.00;98396.77;110726;1272;23283;-80
2023/10/31 01:03:50;;;;;;;10.60;1.70;;;;;;;14.53;100.00;98391.23;110659;1272;23074;-80
2023/10/31 01:06:18;;;;;;;9.10;2.70;;;;;;;14.54;100.00;98380.94;110661;1266;22879;-80
2023/10/31 01:08:47;;;;;;;8.20;1.70;;;;;;;14.55;100.00;98374.55;110818;1272;22693;-80
2023/10/31 01:11:15;;;;;;;11.90;1.80;;;;;;;14.56;100.00;98367.59;110814;1272;22395;-80
2023/10/31 01:13:43;;;;;;;7.60;1.70;;;;;;;14.56;100.00;98366.81;110781;1269;22204;-80
2023/10/31 01:16:12;;;;;;;7.90;1.50;;;;;;;14.57;100.00;98363.78;110723;1261;22228;-80
2023/10/31 01:18:40;;;;;;;8.20;1.60;;;;;;;14.58;100.00;98354.91;110714;1272;22271;-80
2023/10/31 01:21:09;;;;;;;11.30;2.40;;;;;;;14.58;100.00;98348.59;110789;1266;22202;-80
2023/10/31 01:23:37;;;;;;;9.80;1.60;;;;;;;14.57;99.99;98339.70;110817;1272;22265;-80
2023/10/31 01:26:05;;;;;;;8.70;1.50;;;;;;;14.58;99.98;98337.91;110803;1272;22627;-80
2023/10/31 01:28:33;;;;;;;12.10;1.40;;;;;;;14.59;99.93;98331.40;110825;1262;22198;-80
2023/10/31 01:31:01;;;;;;;12.30;1.50;;;;;;;14.59;99.81;98333.39;110783;1272;22522;-80
2023/10/31 01:33:29;;;;;;;10.80;2.00;;;;;;;14.59;99.61;98333.42;110781;1270;22297;-80
2023/10/31 01:35:58;;;;;;;14.30;2.80;;;;;;;14.60;99.77;98331.94;110760;1270;22216;-80
2023/10/31 01:38:28;;;;;;;18.30;3.90;;;;;;;14.61;99.51;98331.19;110780;1270;22200;-80
2023/10/31 01:40:56;;;;;;;16.60;3.30;;;;;;;14.61;99.32;98328.53;110683;1272;22222;-80
2023/10/31 01:43:34;;;;;;;13.50;2.40;;;;;;;14.62;99.28;98322.09;110790;1272;22184;-80
2023/10/31 01:46:03;;;;;;;14.00;2.00;;;;;;;14.62;99.16;98321.83;110774;1272;22218;-80
2023/10/31 01:48:32;;;;;;;10.70;1.80;;;;;;;14.61;98.98;98321.52;110711;1272;22172;-80
2023/10/31 01:51:03;;;;;;;12.80;2.40;;;;;;;14.62;98.93;98319.85;110676;1272;22221;-80
2023/10/31 01:53:34;;;;;;;10.80;2.00;;;;;;;14.62;98.83;98314.38;110732;1266;22180;-80
2023/10/31 01:56:02;;;;;;;;;;;;;;;14.61;98.71;98309.52;110865;1272;22394;-80
2023/10/31 01:58:33;;;;;;;12.80;1.50;;;;;;;14.58;98.57;98307.21;110842;1269;22322;-81
2023/10/31 02:01:01;;;;;;;14.70;1.80;;;;;;;14.57;98.57;98298.15;110750;1272;22416;-80
2023/10/31 02:03:30;;;;;;;13.20;2.10;;;;;;;14.57;98.38;98294.70;110824;1272;22255;-80
2023/10/31 02:05:58;;;;;;;13.00;1.40;;;;;;;14.57;98.37;98289.23;110703;1272;22350;-80
2023/10/31 02:08:27;;;;;;;8.70;1.40;;;;;;;14.57;98.20;98286.69;110814;1272;22203;-80
2023/10/31 02:10:55;;;;;;;7.50;1.40;;;;;;;14.56;98.15;98284.41;110709;1272;23295;-80
2023/10/31 02:13:23;;;;;;;6.00;1.10;;;;;;;14.57;98.10;98289.12;110834;1266;23018;-80
2023/10/31 02:15:52;;;;;;;9.70;1.70;;;;;;;14.56;97.99;98287.88;110844;1266;22371;-80
2023/10/31 02:18:20;;;;;;;6.80;1.50;;;;;;;14.55;97.87;98280.88;109248;1272;22540;-80
2023/10/31 02:20:49;;;;;;;11.80;1.80;;;;;;;14.54;97.82;98278.81;109917;1272;22523;-79
2023/10/31 02:23:17;;;;;;;9.70;1.50;;;;;;;14.53;97.87;98273.88;110420;1272;22565;-80
2023/10/31 02:25:45;;;;;;;13.90;2.40;;;;;;;14.52;97.65;98264.48;110119;1272;22481;-80
2023/10/31 02:28:13;;;;;;;8.00;1.50;;;;;;;14.51;97.50;98264.75;109051;1272;22520;-80
2023/10/31 02:30:42;;;;;;;10.70;1.60;;;;;;;14.49;97.44;98268.52;108913;1272;22521;-80
2023/10/31 02:33:12;;;;;;;9.40;1.60;;;;;;;14.48;97.40;98268.96;109079;1272;23437;-80
2023/10/31 02:35:40;;;;;;;9.90;1.20;;;;;;;14.47;97.25;98266.45;108934;1266;22678;-80
2023/10/31 02:38:08;;;;;;;10.90;1.70;;;;;;;14.45;97.32;98254.91;108855;1257;23552;-80
2023/10/31 02:40:36;;;;;;;10.40;1.50;;;;;;;14.43;97.20;98246.23;108101;1272;24179;-80
2023/10/31 02:43:04;;;;;;;8.00;1.20;;;;;;;14.42;97.24;98242.42;108728;1269;22551;-80
2023/10/31 02:45:32;;;;;;;12.30;1.80;;;;;;;14.41;97.11;98243.70;108735;1272;22649;-80
2023/10/31 02:48:00;;;;;;;11.10;1.80;;;;;;;14.39;97.03;98238.94;108924;1272;23213;-80
2023/10/31 02:50:29;;;;;;;9.00;1.60;;;;;;;14.39;96.96;98240.40;108804;1272;23049;-80
2023/10/31 02:52:57;;;;;;;9.40;1.30;;;;;;;14.37;96.99;98242.94;108789;1272;23388;-80
2023/10/31 02:55:25;;;;;;;11.60;1.50;;;;;;;14.35;96.78;98243.14;108963;1272;22521;-80
2023/10/31 02:57:53;;;;;;;10.90;1.30;;;;;;;14.33;97.04;98240.14;108622;1273;24209;-80
2023/10/31 03:00:22;;;;;;;7.90;1.30;;;;;;;14.33;96.93;98245.45;108262;1272;22971;-80
2023/10/31 03:02:50;;;;;;;6.80;1.00;;;;;;;14.32;96.88;98243.12;108875;1272;22534;-80
2023/10/31 03:05:19;;;;;;;8.50;1.00;;;;;;;14.30;96.82;98237.05;108740;1272;22556;-80
2023/10/31 03:07:47;;;;;;;12.60;1.40;;;;;;;14.29;96.85;98234.79;108915;1272;22579;-80
2023/10/31 03:10:15;;;;;;;5.70;1.00;;;;;;;14.27;96.76;98230.84;108697;1272;23422;-80
2023/10/31 03:12:45;;;;;;;6.70;0.90;;;;;;;14.26;96.81;98225.80;108834;1268;22650;-81
2023/10/31 03:15:14;;;;;;;9.00;1.10;;;;;;;14.24;96.67;98225.21;108114;1272;22484;-80
2023/10/31 03:17:42;;;;;;;7.20;1.20;;;;;;;14.24;96.58;98225.01;108196;1272;22550;-80
2023/10/31 03:20:12;;;;;;;5.40;0.90;;;;;;;14.24;96.52;98226.02;108674;1272;22545;-80
2023/10/31 03:22:40;;;;;;;7.20;0.90;;;;;;;14.25;96.54;98222.05;108682;1272;22599;-80
2023/10/31 03:25:09;;;;;;;4.40;0.90;;;;;;;14.25;96.43;98215.02;108498;1266;24234;-80
2023/10/31 03:27:37;;;;;;;6.00;0.70;;;;;;;14.24;96.29;98217.86;108668;1272;22531;-80
2023/10/31 03:30:07;;;;;;;10.30;1.20;;;;;;;14.23;96.14;98219.77;108714;1272;22524;-80
2023/10/31 03:32:36;;;;;;;3.70;0.70;;;;;;;14.23;96.12;98211.46;108699;1273;22967;-80
2023/10/31 03:35:05;;;;;;;8.20;0.90;;;;;;;14.23;96.08;98201.40;108818;1272;25882;-80
2023/10/31 03:37:33;;;;;;;6.50;0.70;;;;;;;14.24;95.79;98197.91;108925;1272;22551;-80
2023/10/31 03:40:01;;;;;;;7.60;0.90;;;;;;;14.25;95.64;98195.69;108899;1272;22567;-80
2023/10/31 03:42:29;;;;;;;3.80;0.60;;;;;;;14.27;95.47;98191.23;109075;1272;22570;-80
2023/10/31 03:44:57;;;;;;;4.80;0.80;;;;;;;14.29;95.26;98185.33;109021;1272;22605;-80
2023/10/31 03:47:26;;;;;;;5.60;0.50;;;;;;;14.32;94.94;98173.96;108936;1272;22603;-80
2023/10/31 03:49:54;;;;;;;7.00;0.80;;;;;;;14.39;94.55;98171.08;108699;1272;22530;-80
2023/10/31 03:52:22;;;;;;;7.30;0.70;;;;;;;14.47;94.11;98169.39;108979;1272;23863;-80
2023/10/31 03:54:51;;;;;;;6.60;0.80;;;;;;;14.59;93.53;98165.68;108796;1272;22540;-80
2023/10/31 03:57:19;;;;;;;4.70;0.70;;;;;;;14.68;93.55;98162.23;108920;1272;22534;-80
2023/10/31 03:59:47;;;;;;;5.40;0.60;;;;;;;14.75;93.14;98156.16;108301;1272;22550;-80
2023/10/31 04:02:15;;;;;;;8.90;0.60;;;;;;;14.81;92.78;98149.98;108261;1268;22527;-80
2023/10/31 04:04:43;;;;;;;4.30;0.60;;;;;;;14.86;92.65;98142.77;108310;1272;26497;-80
2023/10/31 04:07:11;;;;;;;6.50;0.80;;;;;;;14.90;92.45;98143.71;108782;1269;25302;-80
2023/10/31 04:09:39;;;;;;;3.90;0.80;;;;;;;14.93;92.34;98144.09;108188;1262;22570;-80
2023/10/31 04:12:09;;;;;;;5.50;0.70;;;;;;;14.94;92.23;98147.89;108922;1272;22532;-80
2023/10/31 04:14:38;;;;;;;10.30;0.80;;;;;;;14.96;91.85;98150.73;108750;1272;24205;-80
2023/10/31 04:17:06;;;;;;;5.70;0.60;;;;;;;14.99;91.82;98165.12;108935;1269;23137;-80
2023/10/31 04:19:34;;;;;;;4.40;0.70;;;;;;;15.05;91.37;98185.14;108933;1269;23574;-80
2023/10/31 04:22:03;;;;;;;2.90;0.70;;;;;;;15.09;91.07;98186.58;108595;1273;22518;-80
2023/10/31 04:24:31;;;;;;;5.30;0.80;;;;;;;15.15;90.83;98180.17;108649;1272;25408;-80
2023/10/31 04:26:59;;;;;;;6.40;0.80;;;;;;;15.21;90.49;98183.89;108660;1269;22547;-80
2023/10/31 04:29:28;;;;;;;13.40;0.90;;;;;;;15.27;90.43;98176.45;108579;1272;22523;-80
2023/10/31 04:31:56;;;;;;;6.90;0.70;;;;;;;15.30;90.16;98175.77;108685;1266;22524;-80
2023/10/31 04:34:24;;;;;;;6.40;0.70;;;;;;;15.33;89.85;98176.96;108738;1272;22657;-80
2023/10/31 04:36:52;;;;;;;6.70;0.90;;;;;;;15.36;89.61;98176.00;108775;1269;22591;-80
2023/10/31 04:39:21;;;;;;;3.90;0.80;;;;;;;15.39;89.45;98180.27;108882;1272;22534;-80
2023/10/31 04:41:49;;;;;;;6.00;0.60;;;;;;;15.40;89.31;98176.15;109039;1272;24353;-80
2023/10/31 04:44:19;;;;;;;5.20;0.80;;;;;;;15.41;89.23;98182.29;108308;1269;22741;-80
2023/10/31 04:46:47;;;;;;;5.50;0.80;;;;;;;15.43;89.15;98183.55;108361;1263;22554;-78
2023/10/31 04:49:16;;;;;;;7.00;0.90;;;;;;;15.44;88.97;98181.95;108382;1272;26428;-78
2023/10/31 04:51:44;;;;;;;4.20;0.80;;;;;;;15.44;88.77;98180.04;108444;1266;22562;-79
2023/10/31 04:54:12;;;;;;;8.40;1.00;;;;;;;15.44;88.82;98182.14;108142;1272;22554;-78
2023/10/31 04:56:40;;;;;;;9.50;0.70;;;;;;;15.45;88.58;98183.72;108360;1272;22558;-79
2023/10/31 04:59:09;;;;;;;10.10;1.10;;;;;;;15.45;88.71;98184.06;108349;1266;24158;-80
2023/10/31 05:01:37;;;;;;;5.50;1.00;;;;;;;15.45;88.44;98177.27;107952;1266;22518;-78
2023/10/31 05:04:06;;;;;;;6.60;1.00;;;;;;;15.43;88.59;98173.89;107938;1269;22568;-77
2023/10/31 05:06:34;;;;;;;6.80;0.90;;;;;;;15.41;88.38;98170.90;107991;1262;24193;-77
2023/10/31 05:09:02;;;;;;;5.90;0.90;;;;;;;15.40;88.30;98165.73;107879;1266;23775;-77
2023/10/31 05:11:31;;;;;;;5.90;0.90;;;;;;;15.38;88.23;98166.55;107782;1269;25345;-76
2023/10/31 05:13:59;;;;;;;6.20;0.70;;;;;;;15.38;88.10;98166.63;107750;1269;22580;-74
2023/10/31 05:16:27;;;;;;;6.00;0.70;;;;;;;15.37;88.15;98164.45;107839;1256;22632;-75
2023/10/31 05:18:59;;;;;;;4.80;0.80;;;;;;;15.38;88.07;98163.66;107872;1269;22543;-75
2023/10/31 05:21:27;;;;;;;11.90;1.10;;;;;;;15.36;87.88;98166.79;107891;1267;22649;-75
2023/10/31 05:23:56;;;;;;;8.80;1.00;;;;;;;15.36;87.75;98169.29;107930;1266;25610;-76
2023/10/31 05:26:24;;;;;;;6.70;0.90;;;;;;;15.36;87.80;98164.34;108047;1267;23869;-77
2023/10/31 05:28:53;;;;;;;7.40;0.90;;;;;;;15.35;87.72;98159.77;107846;1267;24694;-78
2023/10/31 05:31:21;;;;;;;6.50;1.20;;;;;;;15.36;88.02;98153.92;107837;1267;22544;-77
2023/10/31 05:33:49;;;;;;;6.20;0.70;;;;;;;15.35;87.77;98149.20;107811;1267;23352;-78
2023/10/31 05:36:21;;;;;;;4.90;1.30;;;;;;;15.36;87.78;98156.33;107857;1267;24608;-78
2023/10/31 05:38:50;;;;;;;5.50;0.70;;;;;;;15.38;87.91;98160.89;107921;1264;22552;-80
2023/10/31 05:41:19;;;;;;;8.30;0.80;;;;;;;15.39;87.86;98161.98;107798;1267;22537;-79
2023/10/31 05:43:47;;;;;;;7.10;1.00;;;;;;;15.42;88.39;98165.88;108009;1267;22542;-79
2023/10/31 05:46:15;;;;;;;9.50;1.00;;;;;;;15.42;88.52;98174.77;108057;1267;25341;-76
2023/10/31 05:48:45;;;;;;;8.10;0.70;;;;;;;15.42;88.70;98179.79;107981;1266;22606;-76
2023/10/31 05:51:15;;;;;;;4.80;0.70;;;;;;;15.41;88.88;98191.55;108087;1268;25392;-80
2023/10/31 05:53:43;;;;;;;;;;;;;;;15.41;89.03;98192.08;110827;1272;22452;-81
2023/10/31 05:56:13;;;;;;;3.90;0.60;;;;;;;15.40;89.29;98191.83;110813;1266;22326;-80
2023/10/31 05:58:42;;;;;;;6.10;0.90;;;;;;;15.37;89.65;98198.38;110776;1272;22180;-77
2023/10/31 06:01:10;;;;;;;7.30;0.70;;;;;;;15.35;89.99;98207.45;110684;1264;22402;-79
2023/10/31 06:03:42;;;;;;;4.70;0.80;;;;;;;15.31;90.45;98207.79;110824;1265;22232;-79
2023/10/31 06:06:11;;;;;;;8.00;1.10;;;;;;;15.26;90.66;98215.02;110777;1263;22172;-80
2023/10/31 06:08:39;;;;;;;4.00;0.90;;;;;;;15.22;91.04;98219.98;110845;1268;22214;-79
2023/10/31 06:11:07;;;;;;;7.30;0.80;;;;;;;15.18;91.55;98221.40;110832;1269;22388;-79
2023/10/31 06:13:36;;;;;;;9.40;1.00;;;;;;;15.13;91.86;98223.45;110123;1269;25169;-79
2023/10/31 06:16:05;;;;;;;7.80;1.00;;;;;;;15.08;92.25;98224.52;108171;1266;22527;-77
2023/10/31 06:18:34;;;;;;;;;;;;;;;15.03;92.53;98230.09;107999;1272;23441;-78
2023/10/31 06:21:02;;;;;;;6.10;0.70;;;;;;;14.99;92.96;98236.42;110723;1272;22207;-79
2023/10/31 06:23:31;;;;;;;2.80;0.80;;;;;;;14.93;93.26;98239.80;110789;1272;22330;-80
2023/10/31 06:25:59;;;;;;;7.50;0.90;;;;;;;14.89;93.50;98241.17;110801;1272;22175;-80
2023/10/31 06:28:27;;;;;;;15.80;4.10;;;;;;;14.85;93.75;98246.74;110830;1266;22144;-81
2023/10/31 06:30:56;;;;;;;9.60;1.90;;;;;;;14.83;94.21;98252.13;110846;1269;22330;-81
2023/10/31 06:33:24;;;;;;;9.10;1.20;;;;;;;14.78;94.48;98257.48;110802;1266;22804;-79
2023/10/31 06:35:53;;;;;;;7.50;1.50;;;;;;;14.75;94.57;98260.34;110881;1267;22660;-81
2023/10/31 06:38:22;;;;;;;10.90;1.00;;;;;;;14.73;94.73;98258.61;110805;1269;22346;-83
2023/10/31 06:40:50;;;;;;;7.00;1.00;;;;;;;14.72;95.06;98265.36;110740;1272;22441;-81
2023/10/31 06:43:18;;;;;;;5.50;0.90;;;;;;;14.70;95.21;98268.14;110745;1272;22476;-80
2023/10/31 06:45:47;;;;;;;6.40;1.00;;;;;;;14.68;95.51;98269.06;110749;1272;22325;-80
2023/10/31 06:48:15;;;;;;;5.10;0.60;;;;;;;14.66;95.69;98273.39;110743;1272;22226;-79
2023/10/31 06:50:43;;;;;;;5.10;0.80;;;;;;;14.64;95.93;98277.55;110695;1272;22139;-78
2023/10/31 06:53:11;;;;;;;4.80;0.80;;;;;;;14.63;96.12;98281.92;110733;1272;22169;-79
2023/10/31 06:55:40;;;;;;;6.00;1.40;;;;;;;14.62;96.18;98279.56;110765;1272;22167;-79
2023/10/31 06:58:08;;;;;;;5.80;1.00;;;;;;;14.61;96.32;98285.40;110675;1272;23057;-80
2023/10/31 07:00:37;;;;;;;4.70;0.80;;;;;;;14.59;96.66;98291.41;110659;1272;22253;-80
2023/10/31 07:03:09;;;;;;;5.20;1.10;;;;;;;14.57;96.83;98297.29;110754;1272;22216;-80
2023/10/31 07:05:40;;;;;;;3.00;0.80;;;;;;;14.57;97.06;98303.27;110715;1266;22935;-81
2023/10/31 07:08:08;;;;;;;7.20;1.30;;;;;;;14.56;97.29;98312.48;110765;1266;22168;-81
2023/10/31 07:10:37;;;;;;;11.20;1.70;;;;;;;14.55;97.42;98321.31;110697;1265;23113;-81
2023/10/31 07:13:05;;;;;;;11.00;2.00;;;;;;;14.53;97.76;98323.84;110739;1272;22179;-81
2023/10/31 07:15:38;;;;;;;14.90;2.60;;;;;;;14.53;97.88;98329.38;110684;1272;22170;-81
2023/10/31 07:18:08;;;;;;;9.20;1.50;;;;;;;14.51;98.11;98326.14;110736;1266;22233;-81
2023/10/31 07:20:36;;;;;;;9.60;1.20;;;;;;;14.50;98.37;98319.86;110743;1272;22182;-81
2023/10/31 07:23:04;;;;;;;6.00;0.90;;;;;;;14.49;98.41;98321.48;110701;1269;22620;-81
2023/10/31 07:25:34;;;;;;;;;;;;;;;14.48;98.68;98324.60;110737;1268;22457;-81
2023/10/31 07:28:02;;;;;;;10.50;0.90;;;;;;;14.48;98.80;98327.21;110739;1267;22196;-81
2023/10/31 07:30:30;;;;;;;9.60;1.00;;;;;;;14.48;98.97;98330.14;110711;1272;22169;-80
2023/10/31 07:32:58;;;;;;;4.60;1.10;;;;;;;14.50;99.11;98337.30;110733;1272;22137;-81
2023/10/31 07:35:27;;;;;;;5.90;1.10;;;;;;;14.52;99.15;98338.17;110760;1272;22356;-80
2023/10/31 07:37:55;;;;;;;7.10;0.90;;;;;;;14.53;99.39;98341.81;110725;1272;22175;-81
2023/10/31 07:40:23;;;;;;;4.40;0.90;;;;;;;14.55;99.58;98352.09;110742;1272;22463;-80
2023/10/31 07:42:51;;;;;;;4.00;0.80;;;;;;;14.55;99.59;98358.31;110736;1272;22182;-80
2023/10/31 07:45:19;;;;;;;4.20;0.90;;;;;;;14.54;99.70;98376.98;110732;1272;22427;-81
2023/10/31 07:47:48;;;;;;;4.80;0.70;;;;;;;14.52;99.70;98378.50;110747;1269;22210;-80
2023/10/31 07:50:16;;;;;;;2.80;0.80;;;;;;;14.50;99.44;98390.98;110679;1272;22165;-80
2023/10/31 07:52:46;;;;;;;4.60;0.90;;;;;;;14.46;99.38;98407.05;110764;1272;22924;-80
2023/10/31 07:55:14;;;;;;;;;;;;;;;14.43;99.18;98406.91;110764;1266;23194;-81
2023/10/31 07:57:42;;;;;;;5.30;0.30;;;;;;;14.40;99.12;98416.14;110722;1272;22155;-80
2023/10/31 08:00:13;;;;;;;4.00;0.60;;;;;;;14.38;99.25;98426.59;110776;1272;23447;-80
2023/10/31 08:02:41;;;;;;;3.10;0.60;;;;;;;14.37;99.47;98439.09;110777;1272;22177;-80
2023/10/31 08:05:11;;;;;;;2.80;0.50;;;;;;;14.35;99.38;98447.86;110690;1272;22965;-80
2023/10/31 08:07:39;;;;;;;2.90;0.50;;;;;;;14.33;99.26;98458.79;110621;1272;22933;-80
2023/10/31 08:10:11;;;;;;;3.70;0.50;;;;;;;14.32;99.13;98470.30;110751;1270;22161;-80
2023/10/31 08:12:39;;;;;;;1.70;0.40;;;;;;;14.30;98.93;98476.59;110739;1270;22147;-81
2023/10/31 08:15:10;;;;;;;2.90;0.30;;;;;;;14.28;98.92;98475.82;110672;1272;22898;-80
2023/10/31 08:17:39;;;;;;;3.00;0.50;;;;;;;14.27;99.17;98474.98;110731;1272;22432;-80
2023/10/31 08:20:11;;;;;;;1.90;0.50;;;;;;;14.24;99.20;98471.69;110777;1272;22154;-80
2023/10/31 08:22:42;;;;;;;1.90;0.40;;;;;;;14.22;99.22;98469.98;110646;1272;22239;-81
2023/10/31 08:25:11;;;;;;;2.90;0.60;;;;;;;14.22;99.11;98472.64;110750;1272;22419;-80
2023/10/31 08:27:39;;;;;;;2.10;0.40;;;;;;;14.23;99.21;98482.88;110679;1272;23354;-80
2023/10/31 08:30:10;;;;;;;2.90;0.30;;;;;;;14.23;99.42;98492.21;110779;1272;22211;-80
2023/10/31 08:32:39;;;;;;;1.20;0.40;;;;;;;14.22;99.65;98504.94;110722;1258;22783;-80
2023/10/31 08:35:10;;;;;;;2.50;0.30;;;;;;;14.18;99.59;98508.05;110738;1272;22907;-80
2023/10/31 08:37:38;;;;;;;1.70;0.20;;;;;;;14.14;99.64;98516.41;110739;1262;22981;-80
2023/10/31 08:40:10;;;;;;;1.20;0.20;;;;;;;14.11;99.81;98524.39;110754;1272;22283;-80
2023/10/31 08:42:39;;;;;;;2.70;0.40;;;;;;;14.09;99.98;98531.17;110699;1272;23044;-80
2023/10/31 08:45:10;;;;;;;1.90;0.30;;;;;;;14.05;99.94;98537.13;110758;1266;22210;-80
2023/10/31 08:47:43;;;;;;;2.40;0.40;;;;;;;14.02;99.98;98539.28;110722;1272;22962;-80
2023/10/31 08:50:12;;;;;;;2.20;0.30;;;;;;;14.02;100.00;98540.11;110749;1272;22162;-81
2023/10/31 08:52:41;;;;;;;1.40;0.30;;;;;;;14.01;100.00;98540.70;110702;1269;22197;-80
2023/10/31 08:55:10;;;;;;;1.00;0.30;;;;;;;14.01;100.00;98542.42;110722;1272;22991;-80
2023/10/31 08:57:38;;;;;;;1.50;0.40;;;;;;;14.02;100.00;98545.09;110773;1272;22184;-80
2023/10/31 09:00:09;;;;;;;2.80;0.50;;;;;;;14.05;100.00;98544.22;110749;1272;22128;-80
2023/10/31 09:02:37;;;;;;;7.30;0.50;;;;;;;14.08;100.00;98560.69;110784;1272;22969;-80
2023/10/31 09:05:07;;;;;;;4.70;0.40;;;;;;;14.11;100.00;98572.50;110683;1266;22152;-80
2023/10/31 09:07:35;;;;;;;2.60;0.30;;;;;;;14.13;100.00;98579.86;110795;1269;22894;-80
2023/10/31 09:10:05;;;;;;;2.60;0.50;;;;;;;14.15;100.00;98579.50;110768;1272;22158;-80
2023/10/31 09:12:33;;;;;;;2.00;0.30;;;;;;;14.17;100.00;98580.93;110797;1272;22178;-80
2023/10/31 09:15:01;;;;;;;1.60;0.40;;;;;;;14.20;100.00;98589.09;110818;1272;22159;-80
2023/10/31 09:17:30;;;;;;;4.00;0.40;;;;;;;14.25;100.00;98594.64;110805;1272;22356;-80
2023/10/31 09:19:59;;;;;;;2.70;0.40;;;;;;;14.30;100.00;98596.96;110799;1272;22192;-80
2023/10/31 09:22:30;;;;;;;5.40;0.50;;;;;;;14.35;100.00;98598.22;110527;1267;22261;-80
2023/10/31 09:24:59;;;;;;;2.40;0.50;;;;;;;14.41;100.00;98598.70;110767;1272;22993;-80
2023/10/31 09:27:28;;;;;;;2.30;0.40;;;;;;;14.47;100.00;98600.72;110478;1272;22200;-80
2023/10/31 09:29:57;;;;;;;2.90;0.40;;;;;;;14.51;100.00;98609.34;110825;1261;22237;-80
2023/10/31 09:32:28;;;;;;;2.40;0.40;;;;;;;14.55;99.98;98608.59;110783;1269;22359;-80
2023/10/31 09:34:56;;;;;;;2.90;0.40;;;;;;;14.59;100.00;98608.03;110702;1272;23017;-80
2023/10/31 09:37:24;;;;;;;3.20;0.40;;;;;;;14.63;99.94;98608.30;110807;1272;23319;-80
2023/10/31 09:39:54;;;;;;;5.50;0.40;;;;;;;14.66;99.43;98615.22;110720;1270;22251;-81
2023/10/31 09:42:22;;;;;;;4.20;0.40;;;;;;;14.69;99.49;98607.75;110731;1272;23147;-81
2023/10/31 09:44:50;;;;;;;2.60;1.00;;;;;;;14.73;99.29;98607.47;110813;1269;22388;-81
2023/10/31 09:47:20;;;;;;;2.70;0.50;;;;;;;14.75;99.29;98607.30;110785;1272;22235;-80
2023/10/31 09:49:48;;;;;;;1.40;0.20;;;;;;;14.79;98.94;98602.33;110539;1273;22385;-80
2023/10/31 09:52:20;;;;;;;1.80;0.30;;;;;;;14.81;98.69;98599.45;110752;1272;22388;-80
2023/10/31 09:54:49;;;;;;;3.10;0.50;;;;;;;14.84;98.59;98605.91;110677;1272;22173;-80
2023/10/31 09:57:17;;;;;;;2.30;0.30;;;;;;;14.87;98.62;98612.13;110736;1272;22179;-81
2023/10/31 09:59:46;;;;;;;2.00;0.20;;;;;;;14.91;98.48;98606.92;110843;1272;22207;-80
2023/10/31 10:02:14;;;;;;;1.80;0.30;;;;;;;14.95;98.73;98600.44;110786;1272;22204;-82
2023/10/31 10:04:42;;;;;;;2.90;0.40;;;;;;;15.01;99.09;98591.39;110800;1272;23045;-81
2023/10/31 10:07:17;;;;;;;2.00;0.30;;;;;;;15.06;99.30;98595.25;110786;1272;22173;-80
2023/10/31 10:09:48;;;;;;;3.70;0.40;;;;;;;15.12;99.26;98603.64;110723;1272;22339;-81
2023/10/31 10:12:17;;;;;;;3.40;0.40;;;;;;;15.18;99.32;98605.40;110785;1269;22150;-80
2023/10/31 10:14:48;;;;;;;3.90;0.40;;;;;;;15.24;99.15;98604.96;110706;1269;22187;-80
2023/10/31 10:17:21;;;;;;;1.90;0.30;;;;;;;15.30;98.99;98607.55;110792;1272;22213;-80
2023/10/31 10:20:06;;;;;;;1.60;0.30;;;;;;;15.35;99.01;98617.15;110775;1272;22640;-81
2023/10/31 10:22:40;;;;;;;3.70;0.60;;;;;;;15.39;98.80;98630.98;110714;1272;22240;-80
2023/10/31 10:25:15;;;;;;;2.70;0.40;;;;;;;15.39;98.29;98636.60;110824;1272;22378;-80
2023/10/31 10:27:49;;;;;;;2.60;0.60;;;;;;;15.39;98.44;98642.95;110220;1272;22561;-78
2023/10/31 10:30:21;;;;;;;2.90;0.60;;;;;;;15.39;97.98;98652.61;108780;1272;22563;-78
2023/10/31 10:32:51;;;;;;;4.30;0.40;;;;;;;15.37;97.60;98658.94;108541;1261;24132;-78
2023/10/31 10:35:20;;;;;;;1.80;0.40;;;;;;;15.35;97.29;98657.42;109718;1272;22581;-78
2023/10/31 10:37:52;;;;;;;1.70;0.40;;;;;;;15.30;96.95;98663.01;110099;1273;22672;-78
2023/10/31 10:40:21;;;;;;;2.70;0.40;;;;;;;15.25;96.25;98678.17;109224;1270;23442;-78
2023/10/31 10:42:56;;;;;;;2.10;0.40;;;;;;;15.17;96.17;98690.36;108743;1272;24253;-78
2023/10/31 10:45:26;;;;;;;3.30;0.50;;;;;;;15.10;96.29;98697.34;108668;1269;22539;-78
2023/10/31 10:48:00;;;;;;;;;;;;;;;15.01;96.27;98691.36;110839;1272;22474;-79
2023/10/31 10:50:31;;;;;;;1.50;0.30;;;;;;;14.92;95.79;98697.23;110856;1267;22853;-79
2023/10/31 10:53:09;;;;;;;2.60;0.40;;;;;;;14.78;94.33;98704.23;110829;1272;22968;-79
2023/10/31 10:55:41;;;;;;;2.20;0.40;;;;;;;14.62;94.15;98704.90;110807;1272;23074;-79
2023/10/31 10:58:14;;;;;;;1.80;0.20;;;;;;;14.41;92.05;98698.48;110788;1257;22124;-79
2023/10/31 11:00:43;;;;;;;2.50;0.20;;;;;;;14.20;92.19;98690.42;110760;1257;22159;-79
2023/10/31 11:03:12;;;;;;;2.00;0.30;;;;;;;14.06;91.68;98695.61;110789;1272;22181;-79
2023/10/31 11:05:41;;;;;;;0.80;0.20;;;;;;;13.95;92.08;98692.15;110738;1269;22243;-79
2023/10/31 11:08:12;;;;;;;0.60;0.20;;;;;;;13.86;91.89;98678.75;110796;1272;22159;-79
2023/10/31 11:10:41;;;;;;;2.00;0.20;;;;;;;13.82;92.25;98673.65;110643;1272;22245;-79
2023/10/31 11:13:10;;;;;;;4.40;0.40;;;;;;;13.77;91.51;98676.08;110730;1272;22924;-79
2023/10/31 11:15:41;;;;;;;1.90;0.20;;;;;;;13.74;92.06;98679.70;110743;1272;22271;-78
2023/10/31 11:18:13;;;;;;;1.60;0.20;;;;;;;13.74;91.84;98679.99;110833;1260;23187;-79
2023/10/31 11:20:42;;;;;;;1.10;0.20;;;;;;;13.72;91.04;98680.86;110708;1272;22166;-78
2023/10/31 11:23:10;;;;;;;2.50;0.20;;;;;;;13.70;91.08;98684.61;110809;1272;22300;-79
2023/10/31 11:25:44;;;;;;;1.00;0.10;;;;;;;13.72;90.96;98690.55;110784;1272;22933;-79
2023/10/31 11:28:14;;;;;;;1.80;0.20;;;;;;;13.74;91.15;98687.55;110749;1272;22182;-78
2023/10/31 11:30:43;;;;;;;2.30;0.40;;;;;;;13.77;90.73;98691.71;110727;1267;22137;-78
2023/10/31 11:33:19;;;;;;;2.90;0.30;;;;;;;13.82;90.69;98703.36;110752;1269;22183;-79